»·PEaware :: HGT3142 KHIO-KSJC

HGT3142 :: KHIO-KSJC

FLIGHT INFORMATION

Flight Status: Arrived
Operator: Unknown
More flights by this operator :: More flights under this callsign
Pilot: Matt H. (16191)
Aircraft: Unknown
(LEGA)
More flights by this aircraft type
Origin: KHIO Portland-Hillsboro
United States
Destination: KSJC Mineta San Jose Intl
United States
More flights between these airports :: More routes between these airports
Route: BERNI3 FAMUK Q3 FOWND CHBLI BRIXX2
File this flight plan on PilotEdge
Remarks:
Altitude:
(Current/Filed)
35,000ft
Speed:
(Current/Filed)
400kts
Departed: 01-Jun-19 05:31 PM
Arrived: 01-Jun-19 06:52 PM
Distance/Time
Traveled:
493nm/1:21
Distance/Time
To Go:
Arrived

Flight Plot

Page will automatically refresh every two minutes.

Flight plan parsing failed; only flown route is shown


Map Options




Map Legend


Flown Route
Filed Route
Departure Airport
Arrival Airport
Navaid (VOR, NDB)
Fix

Horizontal Profiles

Position Reports

Time Latitude Longitude Heading Altitude Ground
Speed
01-Jun-19 16:38 45.534969 -122.948326 177 199ft 0kts
01-Jun-19 16:39 45.534969 -122.948326 177 199ft 0kts
01-Jun-19 16:40 45.534969 -122.948326 177 199ft 0kts
01-Jun-19 16:41 45.534969 -122.948326 177 199ft 0kts
01-Jun-19 16:42 45.534969 -122.948326 177 199ft 0kts
01-Jun-19 16:43 45.534969 -122.948326 177 199ft 0kts
01-Jun-19 16:44 45.534969 -122.948326 177 199ft 0kts
01-Jun-19 16:45 45.534969 -122.948326 177 199ft 0kts
01-Jun-19 16:46 45.534969 -122.948326 177 199ft 0kts
01-Jun-19 16:48 45.534969 -122.948326 177 199ft 0kts
01-Jun-19 16:49 45.534969 -122.948326 177 199ft 0kts
01-Jun-19 16:50 45.534969 -122.948326 177 199ft 0kts
01-Jun-19 16:51 45.534969 -122.948326 177 199ft 0kts
01-Jun-19 16:52 45.534969 -122.948326 177 199ft 0kts
01-Jun-19 16:53 45.534969 -122.948326 177 199ft 0kts
01-Jun-19 16:54 45.534969 -122.948326 177 199ft 0kts
01-Jun-19 16:55 45.534969 -122.948326 177 199ft 0kts
01-Jun-19 16:56 45.534969 -122.948326 177 199ft 0kts
01-Jun-19 16:57 45.534969 -122.948326 177 199ft 0kts
01-Jun-19 16:58 45.534969 -122.948326 177 199ft 0kts
01-Jun-19 16:59 45.534969 -122.948326 177 199ft 0kts
01-Jun-19 17:00 45.534969 -122.948326 177 199ft 0kts
01-Jun-19 17:01 45.534969 -122.948326 177 199ft 0kts
01-Jun-19 17:02 45.534969 -122.948326 177 199ft 0kts
01-Jun-19 17:03 45.534969 -122.948326 177 199ft 0kts
01-Jun-19 17:04 45.534969 -122.948326 177 199ft 0kts
01-Jun-19 17:05 45.534969 -122.948326 177 199ft 0kts
01-Jun-19 17:06 45.534969 -122.948326 177 199ft 0kts
01-Jun-19 17:07 45.534969 -122.948326 177 199ft 0kts
01-Jun-19 17:07 45.534969 -122.948326 177 199ft 0kts
01-Jun-19 17:09 45.534969 -122.948326 177 199ft 0kts
01-Jun-19 17:10 45.534969 -122.948326 177 199ft 0kts
01-Jun-19 17:10 45.534969 -122.948326 177 199ft 0kts
01-Jun-19 17:11 45.534969 -122.948326 177 199ft 0kts
01-Jun-19 17:13 45.534969 -122.948326 177 199ft 0kts
01-Jun-19 17:13 45.534969 -122.948326 177 199ft 0kts
01-Jun-19 17:14 45.534969 -122.948326 177 199ft 0kts
01-Jun-19 17:16 45.534969 -122.948326 177 199ft 0kts
01-Jun-19 17:16 45.534969 -122.948326 177 199ft 0kts
01-Jun-19 17:17 45.534969 -122.948326 177 199ft 0kts
01-Jun-19 17:18 45.534969 -122.948326 177 199ft 0kts
01-Jun-19 17:19 45.534969 -122.948326 177 199ft 0kts
01-Jun-19 17:20 45.534969 -122.948326 177 199ft 0kts
01-Jun-19 17:21 45.534969 -122.948326 177 199ft 0kts
01-Jun-19 17:22 45.534910 -122.948283 139 199ft 0kts
01-Jun-19 17:23 45.534971 -122.947877 55 199ft 0kts
01-Jun-19 17:24 45.534993 -122.947830 55 199ft 1kts
01-Jun-19 17:25 45.534266 -122.946886 106 199ft 6kts
01-Jun-19 17:26 45.534623 -122.945345 54 199ft 0kts
01-Jun-19 17:27 45.534623 -122.945345 54 199ft 0kts
01-Jun-19 17:28 45.534623 -122.945345 54 199ft 0kts
01-Jun-19 17:29 45.534623 -122.945345 54 199ft 0kts
01-Jun-19 17:30 45.540053 -122.949492 323 199ft 113kts
01-Jun-19 17:31 45.577865 -122.996002 313 1719ft 199kts
01-Jun-19 17:32 45.550958 -123.047686 191 3282ft 219kts
01-Jun-19 17:33 45.491598 -123.068867 197 4790ft 222kts
01-Jun-19 17:34 45.431457 -123.091729 197 6816ft 227kts
01-Jun-19 17:35 45.360564 -123.118634 196 8761ft 290kts
01-Jun-19 17:36 45.281607 -123.148014 196 10544ft 296kts
01-Jun-19 17:37 45.201298 -123.177906 196 12345ft 303kts
01-Jun-19 17:38 45.116504 -123.206448 180 13625ft 347kts
01-Jun-19 17:39 45.012417 -123.195039 175 14582ft 394kts
01-Jun-19 17:40 44.903542 -123.182351 175 15948ft 391kts
01-Jun-19 17:41 44.796505 -123.169944 175 17415ft 391kts
01-Jun-19 17:42 44.688190 -123.157444 175 18903ft 390kts
01-Jun-19 17:43 44.580782 -123.145094 175 20312ft 389kts
01-Jun-19 17:44 44.472722 -123.134875 178 21806ft 388kts
01-Jun-19 17:45 44.365269 -123.131009 178 23294ft 387kts
01-Jun-19 17:46 44.257682 -123.127170 178 24791ft 386kts
01-Jun-19 17:47 44.150021 -123.123341 178 26021ft 403kts
01-Jun-19 17:48 44.030026 -123.119093 178 26681ft 445kts
01-Jun-19 17:49 43.906530 -123.114740 178 28191ft 444kts
01-Jun-19 17:50 43.784118 -123.110439 178 29659ft 442kts
01-Jun-19 17:51 43.661083 -123.106135 178 31140ft 441kts
01-Jun-19 17:52 43.535093 -123.101742 178 32091ft 470kts
01-Jun-19 17:53 43.401073 -123.097096 178 33364ft 488kts
01-Jun-19 17:54 43.266690 -123.092455 178 34846ft 484kts
01-Jun-19 17:55 43.132058 -123.087823 178 34957ft 493kts
01-Jun-19 17:56 42.994728 -123.083146 177 34947ft 496kts
01-Jun-19 17:57 42.856089 -123.078424 177 34929ft 504kts
01-Jun-19 17:58 42.718756 -123.073743 177 34884ft 503kts
01-Jun-19 17:59 42.578985 -123.069018 177 34880ft 503kts
01-Jun-19 18:00 42.439656 -123.064379 177 34881ft 503kts
01-Jun-19 18:01 42.299725 -123.059847 177 34883ft 503kts
01-Jun-19 18:02 42.164911 -123.055503 177 34884ft 503kts
01-Jun-19 18:03 42.038789 -123.051453 177 34888ft 503kts
01-Jun-19 18:04 41.900169 -123.047019 177 34904ft 503kts
01-Jun-19 18:05 41.761636 -123.042607 177 34927ft 503kts
01-Jun-19 18:06 41.622317 -123.038188 177 34934ft 503kts
01-Jun-19 18:07 41.482750 -123.033786 177 34935ft 502kts
01-Jun-19 18:08 41.344654 -123.029446 177 34937ft 502kts
01-Jun-19 18:09 41.205614 -123.025219 177 34939ft 502kts
01-Jun-19 18:10 41.066368 -123.021002 177 34906ft 503kts
01-Jun-19 18:11 40.926639 -123.016678 177 34770ft 504kts
01-Jun-19 18:12 40.790581 -123.012736 177 34758ft 504kts
01-Jun-19 18:13 40.650340 -123.008554 177 34760ft 504kts
01-Jun-19 18:14 40.510315 -123.004393 177 34761ft 504kts
01-Jun-19 18:15 40.370704 -123.000262 177 34763ft 504kts
01-Jun-19 18:16 40.231008 -122.996153 177 34764ft 504kts
01-Jun-19 18:17 40.091013 -122.992042 177 34775ft 504kts
01-Jun-19 18:18 39.950912 -122.987954 177 34796ft 504kts
01-Jun-19 18:19 39.812753 -122.983931 177 34788ft 504kts
01-Jun-19 18:20 39.673356 -122.979890 177 34827ft 510kts
01-Jun-19 18:21 39.525270 -122.975616 177 34681ft 546kts
01-Jun-19 18:22 39.375233 -122.971312 177 33771ft 537kts
01-Jun-19 18:23 39.227148 -122.967076 177 32875ft 529kts
01-Jun-19 18:24 39.083234 -122.950971 153 31936ft 512kts
01-Jun-19 18:25 38.963735 -122.857005 144 31097ft 503kts
01-Jun-19 18:26 38.847015 -122.763645 144 30220ft 499kts
01-Jun-19 18:27 38.731623 -122.671743 144 29384ft 466kts
01-Jun-19 18:28 38.623391 -122.585796 144 28488ft 455kts
01-Jun-19 18:29 38.505331 -122.537045 176 27652ft 462kts
01-Jun-19 18:30 38.380457 -122.532581 176 25679ft 442kts
01-Jun-19 18:31 38.259908 -122.528533 176 23777ft 427kts
01-Jun-19 18:32 38.143408 -122.524632 176 21881ft 413kts
01-Jun-19 18:33 38.030701 -122.519666 174 19954ft 398kts
01-Jun-19 18:34 37.922406 -122.511494 174 17952ft 383kts
01-Jun-19 18:35 37.818691 -122.503835 174 15752ft 366kts
01-Jun-19 18:36 37.727137 -122.486921 141 14084ft 285kts
01-Jun-19 18:37 37.669169 -122.428747 137 13163ft 306kts
01-Jun-19 18:38 37.601692 -122.366249 153 11926ft 302kts
01-Jun-19 18:39 37.529445 -122.327832 155 10537ft 275kts
01-Jun-19 18:40 37.461283 -122.291666 155 9092ft 271kts
01-Jun-19 18:41 37.393376 -122.255262 155 7303ft 253kts
01-Jun-19 18:42 37.332417 -122.222365 155 5495ft 235kts
01-Jun-19 18:43 37.272865 -122.184658 122 5081ft 246kts
01-Jun-19 18:44 37.263923 -122.113994 93 5100ft 211kts
01-Jun-19 18:45 37.257714 -122.040836 93 4992ft 210kts
01-Jun-19 18:46 37.254600 -121.971171 78 3460ft 199kts
01-Jun-19 18:47 37.272016 -121.917708 47 1599ft 157kts
01-Jun-19 18:48 37.305791 -121.888847 353 1285ft 151kts
01-Jun-19 18:49 37.337745 -121.902587 315 485ft 121kts
01-Jun-19 18:50 37.361134 -121.928205 318 69ft 82kts
01-Jun-19 18:51 37.366630 -121.935392 229 69ft 0kts
01-Jun-19 18:52 37.365290 -121.935950 139 69ft 18kts
01-Jun-19 18:53 37.360706 -121.930909 139 69ft 24kts
01-Jun-19 18:54 37.359489 -121.931270 229 69ft 6kts
01-Jun-19 18:55 37.359345 -121.930990 46 69ft 0kts
01-Jun-19 18:56 37.359345 -121.930990 46 69ft 0kts

Navigation Log

Ident Type
Flight plan parsing failed, navigation log unavailable